Fatal near FFC


#1

flightaware.com/live/flight/N2169T

ALPHA: PILOT…UNKN
ACFT TYPE…PA28
REG NMBR…N2169T

BRAVO: LOCATION…2 SSE KFFC (PEACHTREE CITY FALCON FIELD)
DATE…01/02/06
INCIDENT TIME…0120 UTC

CHARLIE: 1 ABOARD: 1 FATALITIES.

DELTA: PEACHTREE CITY FALCON FIELD AIRPORT
METAR KFFC 020153Z AUTO 14005KT 1 3/4SM TS BR OVC006 13/13 A3002 RMK AO2
LTG DSNT W-N TSB52 SLP169 T01330128
METAR KFFC 020053Z AUTO VRB03KT 4SM BR OVC008 13/13 A3000 RMK AO2 RAE23
CIG 005V011 SLP163 P0001 T01330128
SPECI KFFC 020043Z AUTO VRB04KT 4SM BR BKN008 OVC012 13/12 A2999 RMK AO2
RAE23 CIG 005V009 P0001
SPECI KFFC 020030Z AUTO VRB04KT 4SM BR SCT007 OVC013 13/13 A2999 RMK AO2
RAE23 PRESFR P0001
SPECI KFFC 020020Z AUTO VRB05KT 4SM -RA BR OVC013 13/13 A3000 RMK AO2
P0001
METAR KFFC 012353Z AUTO VRB05KT 4SM -RA BR OVC015 13/13 A3002 RMK AO2
TSE2257 SLP169 P0001 60045 T01330128 10194 20133 50008
SPECI KFFC 012303Z AUTO VRB04KT 4SM -RA BR FEW009 BKN019 OVC038 13/13
A3002 RMK AO2 LTG DSNT E TSE2257 P0000